Time;durP1;ratioP1;P1;durP2;ratioP2;P2;SDS_P1;SDS_P2;PMS_P1;PMS_P2;Temp;Humidity;BMP_temperature;BMP_pressure;BME280_temperature;BME280_humidity;BME280_pressure;Samples;Min_cycle;Max_cycle;Signal;HPM_P1;HPM_P2
2022/01/27 00:03:15;;;;;;;;;;;4.90;99.90;;;;;;6016060;23;20237;-87
2022/01/27 00:05:56;;;;;;;;;;;;;;;;;;;;;
2022/01/27 00:08:52;;;;;;;;;;;;;;;;;;;;;
2022/01/27 00:11:46;;;;;;;;;;;;;;;;;;;;;
2022/01/27 00:14:56;;;;;;;;;;;;;;;;;;;;;
2022/01/27 00:17:58;;;;;;;;;;;;;;;;;;;;;
2022/01/27 00:20:49;;;;;;;;;;;5.70;99.90;;;;;;6221112;23;20332;-89
2022/01/27 00:23:44;;;;;;;;;;;;;;;;;;;;;
2022/01/27 00:30:05;;;;;;;;;;;;;;;;;;;;;
2022/01/27 00:35:52;;;;;;;;;;;5.70;99.90;;;;;;6167878;23;19915;-90
2022/01/27 00:39:12;;;;;;;;;;;;;;;;;;;;;
2022/01/27 00:42:08;;;;;;;;;;;;;;;;;;;;;
2022/01/27 00:45:02;;;;;;;;;;;5.70;99.90;;;;;;6222854;23;19962;-90
2022/01/27 00:47:52;;;;;;;;;;;;;;;;;;;;;
2022/01/27 00:59:51;;;;;;;;;;;;;;;;;;;;;
2022/01/27 01:05:53;;;;;;;;;;;;;;;;;;;;;
2022/01/27 01:18:17;;;;;;;;;;;;;;;;;;;;;
2022/01/27 01:21:31;;;;;;;;;;;5.40;99.90;;;;;;6222772;23;19916;-91
2022/01/27 01:33:45;;;;;;;;;;;5.20;99.90;;;;;;6224276;23;19916;-92
2022/01/27 01:40:01;;;;;;;;;;;5.80;99.90;;;;;;6197251;23;20036;-90
2022/01/27 01:48:57;;;;;;;;;;;;;;;;;;;;;
2022/01/27 01:51:27;;;;;;;;;;;5.60;99.90;;;;;;6215877;23;19977;-91
2022/01/27 01:54:05;;;;;;;;;;;;;;;;;;;;;
2022/01/27 01:56:53;;;;;;;;;;;;;;;;;;;;;
2022/01/27 02:05:57;;;;;;;;;;;;;;;;;;;;;
2022/01/27 02:18:10;;;;;;;;;;;;;;;;;;;;;
2022/01/27 02:21:07;;;;;;;;;;;5.60;99.90;;;;;;6222200;23;19982;-91
2022/01/27 02:26:31;;;;;;;;;;;;;;;;;;;;;
2022/01/27 02:32:36;;;;;;;;;;;;;;;;;;;;;
2022/01/27 02:35:44;;;;;;;;;;;;;;;;;;;;;
2022/01/27 02:38:20;;;;;;;;;;;5.40;99.90;;;;;;6221983;23;19950;-90
2022/01/27 02:41:18;;;;;;;;;;;4.90;99.90;;;;;;6197092;23;19919;-91
2022/01/27 02:43:51;;;;;;;;;;;5.20;99.90;;;;;;6199676;23;19916;-89
2022/01/27 02:46:28;;;;;;;;;;;5.30;99.90;;;;;;6196647;23;19990;-90
2022/01/27 02:48:56;;;;;;;;;;;5.50;99.90;;;;;;6196514;23;19915;-88
2022/01/27 02:51:38;;;;;;;;;;;5.20;99.90;;;;;;6197098;23;19922;-91
2022/01/27 02:54:37;;;;;;;;;;;;;;;;;;;;;
2022/01/27 02:57:03;;;;;;;;;;;6.00;99.90;;;;;;6221554;23;19966;-88
2022/01/27 03:05:29;;;;;;;;;;;5.70;99.90;;;;;;6180440;23;19951;-89
2022/01/27 03:08:05;;;;;;;;;;;;;;;;;;;;;
2022/01/27 03:10:59;;;;;;;;;;;;;;;;;;;;;
2022/01/27 03:19:58;;;;;;;;;;;6.10;99.90;;;;;;6198912;23;19915;-89
2022/01/27 03:23:06;;;;;;;;;;;5.80;99.90;;;;;;6200566;23;19920;-89
2022/01/27 03:25:39;;;;;;;;;;;7.10;99.90;;;;;;6217861;23;19915;-90
2022/01/27 03:28:14;;;;;;;;;;;6.10;99.90;;;;;;6171417;23;20244;-87
2022/01/27 03:30:40;;;;;;;;;;;5.60;99.90;;;;;;6196781;23;19915;-89
2022/01/27 03:33:18;;;;;;;;;;;;;;;;;;;;;
2022/01/27 03:35:58;;;;;;;;;;;7.10;99.90;;;;;;6198792;23;19987;-89
2022/01/27 03:41:40;;;;;;;;;;;5.70;99.90;;;;;;6178719;23;20328;-90
2022/01/27 03:44:13;;;;;;;;;;;5.70;99.90;;;;;;6171950;23;20402;-89
2022/01/27 03:46:49;;;;;;;;;;;6.30;99.90;;;;;;6194900;23;19916;-90
2022/01/27 03:49:32;;;;;;;;;;;;;;;;;;;;;
2022/01/27 03:54:57;;;;;;;;;;;;;;;;;;;;;
2022/01/27 03:57:32;;;;;;;;;;;6.30;99.90;;;;;;6197601;23;20395;-88
2022/01/27 04:00:09;;;;;;;;;;;6.40;99.90;;;;;;6194896;23;20048;-89
2022/01/27 04:02:38;;;;;;;;;;;6.20;99.90;;;;;;6196022;23;20324;-88
2022/01/27 04:05:11;;;;;;;;;;;6.00;99.90;;;;;;6170744;23;19919;-89
2022/01/27 04:07:39;;;;;;;;;;;5.80;99.90;;;;;;6171694;23;20354;-88
2022/01/27 04:10:12;;;;;;;;;;;5.80;99.90;;;;;;6171137;23;19997;-89
2022/01/27 04:12:43;;;;;;;;;;;5.80;99.90;;;;;;6172131;23;19923;-89
2022/01/27 04:15:12;;;;;;;;;;;5.80;99.90;;;;;;6197897;23;20158;-88
2022/01/27 04:17:40;;;;;;;;;;;5.80;99.90;;;;;;6172562;23;19958;-88
2022/01/27 04:20:08;;;;;;;;;;;5.40;99.90;;;;;;6197380;23;19970;-89
2022/01/27 04:22:51;;;;;;;;;;;;;;;;;;;;;
2022/01/27 04:25:37;;;;;;;;;;;5.80;99.90;;;;;;6199596;23;19920;-87
2022/01/27 04:28:27;;;;;;;;;;;5.90;99.90;;;;;;6201376;23;19915;-89
2022/01/27 04:31:16;;;;;;;;;;;5.90;99.90;;;;;;6197298;23;19950;-90
2022/01/27 04:33:44;;;;;;;;;;;5.70;99.90;;;;;;6200335;23;19916;-87
2022/01/27 04:42:23;;;;;;;;;;;5.90;99.90;;;;;;6202257;23;19916;-89
2022/01/27 04:45:45;;;;;;;;;;;;;;;;;;;;;
2022/01/27 04:47:45;;;;;;;;;;;5.90;99.90;;;;;;6201295;23;19919;-87
2022/01/27 04:50:16;;;;;;;;;;;6.30;99.90;;;;;;6198863;23;19916;-88
2022/01/27 04:52:47;;;;;;;;;;;5.50;99.90;;;;;;6172720;23;19923;-88
2022/01/27 04:55:32;;;;;;;;;;;6.50;99.90;;;;;;6198458;23;19915;-88
2022/01/27 04:58:29;;;;;;;;;;;;;;;;;;;;;
2022/01/27 05:04:07;;;;;;;;;;;6.70;99.90;;;;;;6181189;23;19931;-89
2022/01/27 05:06:42;;;;;;;;;;;5.80;99.90;;;;;;6175006;23;19995;-86
2022/01/27 05:12:15;;;;;;;;;;;6.10;99.90;;;;;;6135923;23;19916;-88
2022/01/27 05:14:58;;;;;;;;;;;;;;;;;;;;;
2022/01/27 05:17:33;;;;;;;;;;;;;;;;;;;;;
2022/01/27 05:19:59;;;;;;;;;;;5.30;99.90;;;;;;6198677;23;19965;-87
2022/01/27 05:22:35;;;;;;;;;;;;;;;;;;;;;
2022/01/27 05:25:08;;;;;;;;;;;5.90;99.90;;;;;;6164420;23;19916;-88
2022/01/27 05:27:53;;;;;;;;;;;4.70;99.90;;;;;;6162274;23;19956;-89
2022/01/27 05:30:38;;;;;;;;;;;5.20;99.90;;;;;;6165148;23;19930;-87
2022/01/27 05:33:21;;;;;;;;;;;;;;;;;;;;;
2022/01/27 05:35:59;;;;;;;;;;;6.00;99.90;;;;;;6163279;23;19919;-87
2022/01/27 05:38:24;;;;;;;;;;;5.40;99.90;;;;;;6163030;23;19920;-88
2022/01/27 05:41:03;;;;;;;;;;;;;;;;;;;;;
2022/01/27 05:43:37;;;;;;;;;;;5.50;99.90;;;;;;6163466;23;19939;-88
2022/01/27 05:46:08;;;;;;;;;;;5.50;99.90;;;;;;6138519;23;19917;-89
2022/01/27 05:48:44;;;;;;;;;;;5.70;99.90;;;;;;6138154;23;20175;-89
2022/01/27 05:51:12;;;;;;;;;;;5.50;99.90;;;;;;6137474;23;19991;-87
2022/01/27 05:53:48;;;;;;;;;;;5.50;99.90;;;;;;6136611;23;19916;-88
2022/01/27 05:56:25;;;;;;;;;;;6.40;99.90;;;;;;6136685;23;19916;-87
2022/01/27 05:59:16;;;;;;;;;;;5.30;99.90;;;;;;6138499;23;19971;-89
2022/01/27 06:02:04;;;;;;;;;;;5.10;99.90;;;;;;6160986;23;19916;-87
2022/01/27 06:04:44;;;;;;;;;;;5.60;99.90;;;;;;6161083;23;20339;-90
2022/01/27 06:07:15;;;;;;;;;;;5.50;99.90;;;;;;6137616;23;19938;-89
2022/01/27 06:09:46;;;;;;;;;;;5.10;99.90;;;;;;6137203;23;20287;-88
2022/01/27 06:12:14;;;;;;;;;;;6.10;99.90;;;;;;6136831;23;19967;-89
2022/01/27 06:14:47;;;;;;;;;;;5.50;99.90;;;;;;6161327;23;19917;-89
2022/01/27 06:17:13;;;;;;;;;;;7.00;99.90;;;;;;6137381;23;19926;-88
2022/01/27 06:19:44;;;;;;;;;;;5.70;99.90;;;;;;6135497;23;19952;-88
2022/01/27 06:22:21;;;;;;;;;;;5.70;99.90;;;;;;6144303;23;19920;-89
2022/01/27 06:25:08;;;;;;;;;;;6.10;99.90;;;;;;6171840;23;19916;-89
2022/01/27 06:27:42;;;;;;;;;;;;;;;;;;;;;
2022/01/27 06:30:12;;;;;;;;;;;5.70;99.90;;;;;;6197381;23;19916;-89
2022/01/27 06:33:08;;;;;;;;;;;;;;;;;;;;;
2022/01/27 06:35:45;;;;;;;;;;;5.70;99.90;;;;;;6220146;23;19969;-89
2022/01/27 06:38:35;;;;;;;;;;;;;;;;;;;;;
2022/01/27 06:44:04;;;;;;;;;;;;;;;;;;;;;
2022/01/27 06:46:50;;;;;;;;;;;;;;;;;;;;;
2022/01/27 06:49:28;;;;;;;;;;;6.40;99.90;;;;;;6219651;23;19916;-90
2022/01/27 06:51:59;;;;;;;;;;;6.80;99.90;;;;;;6196870;23;19923;-89
2022/01/27 06:55:02;;;;;;;;;;;5.90;99.90;;;;;;6172903;23;19922;-90
2022/01/27 07:04:39;;;;;;;;;;;;;;;;;;;;;
2022/01/27 07:10:19;;;;;;;;;;;;;;;;;;;;;
2022/01/27 07:13:31;;;;;;;;;;;;;;;;;;;;;
2022/01/27 07:19:50;;;;;;;;;;;5.80;99.90;;;;;;5955885;24;19923;-91
2022/01/27 07:49:29;;;;;;;;;;;7.60;99.90;;;;;;6108889;23;19975;-89
2022/01/27 07:52:25;;;;;;;;;;;;;;;;;;;;;
2022/01/27 08:01:17;;;;;;;;;;;;;;;;;;;;;
2022/01/27 08:07:35;;;;;;;;;;;;;;;;;;;;;
2022/01/27 08:10:33;;;;;;;;;;;;;;;;;;;;;
2022/01/27 08:13:37;;;;;;;;;;;;;;;;;;;;;
2022/01/27 08:16:31;;;;;;;;;;;7.70;99.90;;;;;;6161548;23;19927;-90
2022/01/27 08:19:20;;;;;;;;;;;6.60;99.90;;;;;;6142872;23;19921;-90
2022/01/27 08:25:26;;;;;;;;;;;;;;;;;;;;;
2022/01/27 08:34:14;;;;;;;;;;;;;;;;;;;;;
2022/01/27 08:36:43;;;;;;;;;;;5.80;99.90;;;;;;6140566;23;19924;-89
2022/01/27 08:39:34;;;;;;;;;;;6.90;99.90;;;;;;6120864;23;19990;-90
2022/01/27 08:42:29;;;;;;;;;;;6.70;99.90;;;;;;6159777;23;19956;-91
2022/01/27 08:45:46;;;;;;;;;;;;;;;;;;;;;
2022/01/27 08:51:20;;;;;;;;;;;;;;;;;;;;;
2022/01/27 08:57:18;;;;;;;;;;;;;;;;;;;;;
2022/01/27 09:00:35;;;;;;;;;;;;;;;;;;;;;
2022/01/27 09:03:02;;;;;;;;;;;;;;;;;;;;;
2022/01/27 09:06:01;;;;;;;;;;;;;;;;;;;;;
2022/01/27 09:11:43;;;;;;;;;;;7.10;99.90;;;;;;6154116;23;20234;-90
2022/01/27 09:14:08;;;;;;;;;;;7.10;99.90;;;;;;6161823;23;19916;-91
2022/01/27 09:23:12;;;;;;;;;;;;;;;;;;;;;
2022/01/27 09:25:54;;;;;;;;;;;8.30;99.90;;;;;;6163166;23;19920;-91
2022/01/27 09:28:37;;;;;;;;;;;;;;;;;;;;;
2022/01/27 09:31:13;;;;;;;;;;;7.50;99.90;;;;;;6163064;23;19920;-91
2022/01/27 09:34:10;;;;;;;;;;;7.50;99.90;;;;;;6137030;23;19967;-89
2022/01/27 09:36:57;;;;;;;;;;;7.30;99.90;;;;;;6160335;23;20337;-89
2022/01/27 09:39:34;;;;;;;;;;;7.80;99.90;;;;;;6136365;23;20211;-92
2022/01/27 09:42:23;;;;;;;;;;;7.50;99.90;;;;;;6136795;23;19916;-90
2022/01/27 09:44:57;;;;;;;;;;;7.00;99.90;;;;;;6164238;23;19917;-91
2022/01/27 09:50:34;;;;;;;;;;;7.50;99.90;;;;;;6164167;23;19916;-91
2022/01/27 09:53:39;;;;;;;;;;;;;;;;;;;;;
2022/01/27 10:02:39;;;;;;;;;;;;;;;;;;;;;
2022/01/27 10:17:40;;;;;;;;;;;7.20;99.90;;;;;;6061068;23;20287;-91
2022/01/27 10:20:15;;;;;;;;;;;7.30;99.90;;;;;;6023165;23;19957;-90
2022/01/27 10:23:10;;;;;;;;;;;8.10;99.90;;;;;;6046716;23;19924;-90
2022/01/27 10:25:49;;;;;;;;;;;8.10;99.90;;;;;;6078089;23;19916;-89
2022/01/27 10:28:29;;;;;;;;;;;8.10;99.90;;;;;;6135758;23;19916;-89
2022/01/27 10:31:20;;;;;;;;;;;;;;;;;;;;;
2022/01/27 10:36:41;;;;;;;;;;;8.10;99.90;;;;;;6159021;23;19916;-91
2022/01/27 10:39:12;;;;;;;;;;;7.80;99.90;;;;;;6136843;23;19951;-91
2022/01/27 10:41:56;;;;;;;;;;;8.00;99.90;;;;;;6136262;23;19916;-91
2022/01/27 10:44:44;;;;;;;;;;;;;;;;;;;;;
2022/01/27 10:47:39;;;;;;;;;;;8.00;99.90;;;;;;6162017;23;19916;-90
2022/01/27 10:50:14;;;;;;;;;;;8.40;99.90;;;;;;6136848;23;20347;-91
2022/01/27 10:53:03;;;;;;;;;;;8.20;99.90;;;;;;6160278;23;19922;-91
2022/01/27 10:58:27;;;;;;;;;;;8.10;99.90;;;;;;6163272;23;20400;-91
2022/01/27 11:01:06;;;;;;;;;;;7.50;99.90;;;;;;6134702;23;19921;-90
2022/01/27 11:03:46;;;;;;;;;;;8.20;99.90;;;;;;6136814;23;19920;-91
2022/01/27 11:06:14;;;;;;;;;;;8.00;99.90;;;;;;6136786;23;19923;-91
2022/01/27 11:08:59;;;;;;;;;;;9.10;99.90;;;;;;6136606;23;19922;-90
2022/01/27 11:11:44;;;;;;;;;;;;;;;;;;;;;
2022/01/27 11:14:50;;;;;;;;;;;8.10;99.90;;;;;;6161590;23;19917;-89
2022/01/27 11:17:36;;;;;;;;;;;8.30;99.90;;;;;;6161804;23;19926;-88
2022/01/27 11:28:08;;;;;;;;;;;8.30;99.90;;;;;;6184044;23;20392;-90
2022/01/27 11:30:54;;;;;;;;;;;;;;;;;;;;;
2022/01/27 11:33:40;;;;;;;;;;;8.50;99.90;;;;;;6161405;23;20384;-90
2022/01/27 11:36:31;;;;;;;;;;;8.30;99.90;;;;;;6158802;23;20172;-90
2022/01/27 11:39:01;;;;;;;;;;;8.60;99.90;;;;;;6158703;23;20325;-89
2022/01/27 11:41:49;;;;;;;;;;;;;;;;;;;;;
2022/01/27 11:44:24;;;;;;;;;;;8.50;99.90;;;;;;6183786;23;19957;-90
2022/01/27 11:47:09;;;;;;;;;;;8.50;99.90;;;;;;6159193;23;19916;-90
2022/01/27 11:50:22;;;;;;;;;;;;;;;;;;;;;
2022/01/27 11:52:51;;;;;;;;;;;8.70;99.90;;;;;;6144728;23;19924;-89
2022/01/27 11:55:26;;;;;;;;;;;9.30;99.90;;;;;;6134774;23;19917;-92
2022/01/27 11:57:58;;;;;;;;;;;8.70;99.90;;;;;;6159149;23;19928;-91
2022/01/27 12:00:28;;;;;;;;;;;8.70;99.90;;;;;;6135164;23;19966;-92
2022/01/27 12:03:13;;;;;;;;;;;;;;;;;;;;;
2022/01/27 12:05:51;;;;;;;;;;;8.70;99.90;;;;;;6183800;23;19916;-87
2022/01/27 12:08:18;;;;;;;;;;;9.10;99.90;;;;;;6136074;23;19916;-90
2022/01/27 12:10:47;;;;;;;;;;;8.70;99.90;;;;;;6159434;23;19952;-90
2022/01/27 12:13:31;;;;;;;;;;;9.40;99.90;;;;;;6135465;23;19920;-90
2022/01/27 12:19:18;;;;;;;;;;;8.70;99.90;;;;;;6164839;23;19928;-89
2022/01/27 12:22:10;;;;;;;;;;;;;;;;;;;;;
2022/01/27 12:24:42;;;;;;;;;;;8.60;99.90;;;;;;6184333;23;19967;-88
2022/01/27 12:27:28;;;;;;;;;;;9.00;99.90;;;;;;6134476;23;19920;-90
2022/01/27 12:30:22;;;;;;;;;;;;;;;;;;;;;
2022/01/27 12:33:10;;;;;;;;;;;8.30;99.90;;;;;;6161880;23;19939;-89
2022/01/27 12:35:38;;;;;;;;;;;8.60;99.90;;;;;;6161163;23;19948;-89
2022/01/27 12:38:11;;;;;;;;;;;8.50;99.90;;;;;;6136824;23;19924;-90
2022/01/27 12:40:50;;;;;;;;;;;8.60;99.90;;;;;;6160917;23;19920;-89
2022/01/27 12:43:46;;;;;;;;;;;8.10;99.90;;;;;;6138445;23;19916;-89
2022/01/27 12:46:29;;;;;;;;;;;9.00;99.90;;;;;;6161677;23;20360;-93
2022/01/27 12:49:07;;;;;;;;;;;;;;;;;;;;;
2022/01/27 12:52:05;;;;;;;;;;;;;;;;;;;;;
2022/01/27 12:54:36;;;;;;;;;;;8.50;99.90;;;;;;6163979;23;19926;-91
2022/01/27 12:57:12;;;;;;;;;;;7.80;99.90;;;;;;6137012;23;19994;-91
2022/01/27 13:03:00;;;;;;;;;;;;;;;;;;;;;
2022/01/27 13:05:35;;;;;;;;;;;8.60;99.90;;;;;;6185366;23;19917;-89
2022/01/27 13:08:28;;;;;;;;;;;;;;;;;;;;;
2022/01/27 13:11:07;;;;;;;;;;;8.60;99.90;;;;;;6163101;23;19916;-89
2022/01/27 13:13:45;;;;;;;;;;;;;;;;;;;;;
2022/01/27 13:16:17;;;;;;;;;;;8.80;99.90;;;;;;6163759;23;19920;-88
2022/01/27 13:19:06;;;;;;;;;;;8.80;99.90;;;;;;6161909;23;19921;-91
2022/01/27 13:21:51;;;;;;;;;;;8.70;99.90;;;;;;6137489;23;19928;-90
2022/01/27 13:24:19;;;;;;;;;;;8.40;99.90;;;;;;6139237;23;20344;-90
2022/01/27 13:27:18;;;;;;;;;;;;;;;;;;;;;
2022/01/27 13:29:59;;;;;;;;;;;8.80;99.90;;;;;;6185305;23;19917;-89
2022/01/27 13:32:29;;;;;;;;;;;10.00;99.90;;;;;;6137353;23;19916;-90
2022/01/27 13:35:05;;;;;;;;;;;;;;;;;;;;;
2022/01/27 13:37:40;;;;;;;;;;;8.80;99.90;;;;;;6162964;23;19943;-89
2022/01/27 13:43:20;;;;;;;;;;;8.40;99.90;;;;;;6100036;23;19917;-90
2022/01/27 13:45:58;;;;;;;;;;;;;;;;;;;;;
2022/01/27 13:48:34;;;;;;;;;;;;;;;;;;;;;
2022/01/27 13:51:09;;;;;;;;;;;8.20;99.90;;;;;;6162668;23;19967;-90
2022/01/27 13:53:53;;;;;;;;;;;;;;;;;;;;;
2022/01/27 13:56:28;;;;;;;;;;;8.60;99.90;;;;;;6162546;23;19919;-90
2022/01/27 13:59:21;;;;;;;;;;;;;;;;;;;;;
2022/01/27 14:01:46;;;;;;;;;;;8.70;99.90;;;;;;6164432;23;19916;-90
2022/01/27 14:04:28;;;;;;;;;;;9.80;99.90;;;;;;6135424;23;19924;-90
2022/01/27 14:07:03;;;;;;;;;;;8.20;99.90;;;;;;6137001;23;19955;-90
2022/01/27 14:10:07;;;;;;;;;;;;;;;;;;;;;
2022/01/27 14:12:49;;;;;;;;;;;8.50;99.90;;;;;;6184621;23;19924;-90
2022/01/27 14:15:36;;;;;;;;;;;8.60;99.90;;;;;;6136762;23;19958;-91
2022/01/27 14:18:07;;;;;;;;;;;8.60;99.90;;;;;;6160397;23;20325;-91
2022/01/27 14:20:43;;;;;;;;;;;;;;;;;;;;;
2022/01/27 14:23:23;;;;;;;;;;;8.30;99.90;;;;;;6162671;23;20234;-90
2022/01/27 14:26:05;;;;;;;;;;;;;;;;;;;;;
2022/01/27 14:28:41;;;;;;;;;;;;;;;;;;;;;
2022/01/27 14:31:17;;;;;;;;;;;8.50;99.90;;;;;;6162189;23;19916;-90
2022/01/27 14:33:45;;;;;;;;;;;9.20;99.90;;;;;;6161979;23;19916;-90
2022/01/27 14:36:13;;;;;;;;;;;8.30;99.90;;;;;;6135809;23;19923;-90
2022/01/27 14:39:07;;;;;;;;;;;8.30;99.90;;;;;;6134861;23;19947;-89
2022/01/27 14:41:42;;;;;;;;;;;8.10;99.90;;;;;;6163299;23;19966;-90
2022/01/27 14:47:16;;;;;;;;;;;7.50;99.90;;;;;;6163771;23;19954;-88
2022/01/27 14:49:45;;;;;;;;;;;8.30;99.90;;;;;;6160109;23;20319;-89
2022/01/27 14:52:24;;;;;;;;;;;9.30;99.90;;;;;;6136081;23;20329;-89
2022/01/27 14:55:03;;;;;;;;;;;;;;;;;;;;;
2022/01/27 14:57:31;;;;;;;;;;;7.80;99.90;;;;;;6161104;23;19924;-88
2022/01/27 15:00:02;;;;;;;;;;;7.40;99.90;;;;;;6135481;23;20334;-89
2022/01/27 15:02:35;;;;;;;;;;;8.40;99.90;;;;;;6135529;23;20003;-89
2022/01/27 15:05:04;;;;;;;;;;;8.80;99.90;;;;;;6159635;23;19916;-89
2022/01/27 15:07:37;;;;;;;;;;;7.70;99.90;;;;;;6134714;23;19916;-90
2022/01/27 15:10:05;;;;;;;;;;;7.50;99.90;;;;;;6136491;23;19995;-88
2022/01/27 15:12:36;;;;;;;;;;;7.50;99.90;;;;;;6135588;23;19920;-91
2022/01/27 15:20:56;;;;;;;;;;;;;;;;;;;;;
2022/01/27 15:23:26;;;;;;;;;;;7.40;99.90;;;;;;6162260;23;19987;-89
2022/01/27 15:25:57;;;;;;;;;;;7.80;99.90;;;;;;6134956;23;19916;-89
2022/01/27 15:28:23;;;;;;;;;;;6.80;99.90;;;;;;6135141;23;20325;-90
2022/01/27 15:30:58;;;;;;;;;;;6.00;99.90;;;;;;6134852;23;19954;-90
2022/01/27 15:33:34;;;;;;;;;;;;;;;;;;;;;
2022/01/27 15:36:10;;;;;;;;;;;7.00;99.90;;;;;;6161658;23;19920;-89
2022/01/27 15:38:38;;;;;;;;;;;8.20;99.90;;;;;;6159382;23;19920;-90
2022/01/27 15:41:04;;;;;;;;;;;5.80;99.90;;;;;;6159291;23;20356;-90
2022/01/27 15:43:30;;;;;;;;;;;6.70;99.90;;;;;;6134527;23;19917;-89
2022/01/27 15:48:51;;;;;;;;;;;6.80;99.90;;;;;;6153128;23;19917;-90
2022/01/27 15:51:37;;;;;;;;;;;;;;;;;;;;;
2022/01/27 15:54:11;;;;;;;;;;;6.60;99.90;;;;;;6161502;23;19920;-91
2022/01/27 15:56:42;;;;;;;;;;;6.70;99.90;;;;;;6134969;23;19971;-88
2022/01/27 15:59:26;;;;;;;;;;;6.20;99.90;;;;;;6158928;23;19938;-90
2022/01/27 16:02:12;;;;;;;;;;;7.20;99.90;;;;;;6159498;23;19922;-90
2022/01/27 16:04:40;;;;;;;;;;;7.00;99.90;;;;;;6158247;23;19952;-91
2022/01/27 16:07:09;;;;;;;;;;;6.60;99.90;;;;;;6158891;23;20015;-90
2022/01/27 16:09:44;;;;;;;;;;;;;;;;;;;;;
2022/01/27 16:12:25;;;;;;;;;;;6.70;99.90;;;;;;6161104;23;19920;-89
2022/01/27 16:14:56;;;;;;;;;;;7.10;99.90;;;;;;6134892;23;20000;-90
2022/01/27 16:17:50;;;;;;;;;;;6.70;99.90;;;;;;6134504;23;19928;-90
2022/01/27 16:23:30;;;;;;;;;;;7.40;99.90;;;;;;6138190;23;19986;-91
2022/01/27 16:26:06;;;;;;;;;;;6.80;99.90;;;;;;6158776;23;19916;-90
2022/01/27 16:28:37;;;;;;;;;;;7.40;99.90;;;;;;6158246;23;19951;-89
2022/01/27 16:31:16;;;;;;;;;;;6.90;99.90;;;;;;6134760;23;20233;-90
2022/01/27 16:34:02;;;;;;;;;;;6.30;99.90;;;;;;6136547;23;19916;-89
2022/01/27 16:36:33;;;;;;;;;;;7.40;99.90;;;;;;6137674;23;19955;-90
2022/01/27 16:39:07;;;;;;;;;;;7.30;99.90;;;;;;6134197;23;19926;-90
2022/01/27 16:41:50;;;;;;;;;;;6.90;99.90;;;;;;6159526;23;19920;-89
2022/01/27 16:44:24;;;;;;;;;;;6.70;99.90;;;;;;6162647;23;20237;-91
2022/01/27 16:46:52;;;;;;;;;;;6.80;99.90;;;;;;6134783;23;19916;-88
2022/01/27 16:49:35;;;;;;;;;;;6.50;99.90;;;;;;6162015;23;20348;-89
2022/01/27 16:52:03;;;;;;;;;;;8.20;99.90;;;;;;6158707;23;19916;-89
2022/01/27 16:54:41;;;;;;;;;;;;;;;;;;;;;
2022/01/27 16:57:09;;;;;;;;;;;7.40;99.90;;;;;;6161218;23;19921;-89
2022/01/27 16:59:41;;;;;;;;;;;8.00;99.90;;;;;;6133966;23;19969;-89
2022/01/27 17:02:09;;;;;;;;;;;6.60;99.90;;;;;;6134326;23;19916;-88
2022/01/27 17:04:37;;;;;;;;;;;6.50;99.90;;;;;;6134244;23;19951;-88
2022/01/27 17:07:23;;;;;;;;;;;6.40;99.90;;;;;;6158473;23;19920;-88
2022/01/27 17:09:51;;;;;;;;;;;6.60;99.90;;;;;;6133830;23;19931;-89
2022/01/27 17:12:19;;;;;;;;;;;6.30;99.90;;;;;;6157269;23;20344;-88
2022/01/27 17:14:50;;;;;;;;;;;6.60;99.90;;;;;;6158945;23;19951;-88
2022/01/27 17:17:20;;;;;;;;;;;7.20;99.90;;;;;;6134016;23;19920;-88
2022/01/27 17:19:48;;;;;;;;;;;7.00;99.90;;;;;;6134602;23;19920;-90
2022/01/27 17:22:19;;;;;;;;;;;6.10;99.90;;;;;;6160510;23;19920;-91
2022/01/27 17:24:44;;;;;;;;;;;6.00;99.90;;;;;;6136204;23;20394;-89
2022/01/27 17:27:17;;;;;;;;;;;6.00;99.90;;;;;;6135266;23;19944;-89
2022/01/27 17:29:46;;;;;;;;;;;5.80;99.90;;;;;;6160438;23;19927;-92
2022/01/27 17:32:18;;;;;;;;;;;5.50;99.90;;;;;;6135714;23;19927;-89
2022/01/27 17:34:48;;;;;;;;;;;6.00;99.90;;;;;;6135916;23;20285;-90
2022/01/27 17:37:14;;;;;;;;;;;6.10;99.90;;;;;;6159744;23;19928;-88
2022/01/27 17:39:50;;;;;;;;;;;;;;;;;;;;;
2022/01/27 17:42:18;;;;;;;;;;;6.20;99.90;;;;;;6161520;23;19916;-87
2022/01/27 17:45:00;;;;;;;;;;;7.50;99.90;;;;;;6135097;23;19931;-88
2022/01/27 17:47:28;;;;;;;;;;;6.70;99.90;;;;;;6138100;23;19986;-87
2022/01/27 17:49:56;;;;;;;;;;;7.30;99.90;;;;;;6159742;23;19999;-88
2022/01/27 17:52:30;;;;;;;;;;;6.50;99.90;;;;;;6135393;23;19916;-90
2022/01/27 17:55:18;;;;;;;;;;;5.90;99.90;;;;;;6135941;23;19932;-88
2022/01/27 17:57:46;;;;;;;;;;;6.60;99.90;;;;;;6135944;23;19920;-88
2022/01/27 18:00:12;;;;;;;;;;;7.50;99.90;;;;;;6159892;23;19995;-88
2022/01/27 18:02:40;;;;;;;;;;;6.10;99.90;;;;;;6135377;23;19970;-87
2022/01/27 18:05:06;;;;;;;;;;;7.00;99.90;;;;;;6135128;23;19970;-87
2022/01/27 18:07:33;;;;;;;;;;;5.90;99.90;;;;;;6135012;23;19923;-88
2022/01/27 18:10:01;;;;;;;;;;;6.30;99.90;;;;;;6159830;23;20038;-88
2022/01/27 18:12:27;;;;;;;;;;;6.20;99.90;;;;;;6160097;23;20345;-89
2022/01/27 18:14:55;;;;;;;;;;;5.90;99.90;;;;;;6159364;23;19916;-88
2022/01/27 18:17:23;;;;;;;;;;;6.20;99.90;;;;;;6159817;23;19999;-88
2022/01/27 18:19:49;;;;;;;;;;;5.90;99.90;;;;;;6135110;23;19923;-88
2022/01/27 18:22:25;;;;;;;;;;;6.10;99.90;;;;;;6135023;23;19916;-88
2022/01/27 18:24:53;;;;;;;;;;;5.60;99.90;;;;;;6184586;23;19942;-88
2022/01/27 18:27:19;;;;;;;;;;;5.40;99.90;;;;;;6134847;23;19988;-88
2022/01/27 18:29:45;;;;;;;;;;;6.70;99.90;;;;;;6159361;23;19957;-88
2022/01/27 18:32:10;;;;;;;;;;;6.00;99.90;;;;;;6159221;23;20011;-88
2022/01/27 18:34:36;;;;;;;;;;;6.30;99.90;;;;;;6159116;23;19991;-88
2022/01/27 18:37:04;;;;;;;;;;;5.10;99.90;;;;;;6134443;23;19920;-88
2022/01/27 18:39:34;;;;;;;;;;;5.50;99.90;;;;;;6134544;23;19921;-88
2022/01/27 18:42:02;;;;;;;;;;;5.70;99.90;;;;;;6159891;23;19917;-87
2022/01/27 18:44:28;;;;;;;;;;;5.60;99.90;;;;;;6134708;23;20325;-88
2022/01/27 18:46:56;;;;;;;;;;;5.60;99.90;;;;;;6134645;23;19971;-88
2022/01/27 18:49:32;;;;;;;;;;;6.60;99.90;;;;;;6159418;23;19963;-88
2022/01/27 18:52:00;;;;;;;;;;;6.20;99.90;;;;;;6161217;23;19916;-88
2022/01/27 18:54:35;;;;;;;;;;;6.40;99.90;;;;;;6134103;23;19923;-87
2022/01/27 18:57:09;;;;;;;;;;;5.60;99.90;;;;;;6135450;23;20222;-88
2022/01/27 19:06:11;;;;;;;;;;;;;;;;;;;;;
2022/01/27 19:08:39;;;;;;;;;;;6.50;99.90;;;;;;6161706;23;19912;-91
2022/01/27 19:11:21;;;;;;;;;;;;;;;;;;;;;
2022/01/27 19:14:05;;;;;;;;;;;;;;;;;;;;;
2022/01/27 19:16:43;;;;;;;;;;;5.20;99.90;;;;;;6163866;23;19917;-90
2022/01/27 19:19:23;;;;;;;;;;;5.30;99.90;;;;;;6135495;23;19947;-89
2022/01/27 19:22:01;;;;;;;;;;;;;;;;;;;;;
2022/01/27 19:25:00;;;;;;;;;;;;;;;;;;;;;
2022/01/27 19:27:46;;;;;;;;;;;;;;;;;;;;;
2022/01/27 19:34:09;;;;;;;;;;;;;;;;;;;;;
2022/01/27 19:36:46;;;;;;;;;;;;;;;;;;;;;
2022/01/27 19:42:03;;;;;;;;;;;4.10;99.90;;;;;;6151676;23;19920;-91
2022/01/27 19:48:03;;;;;;;;;;;;;;;;;;;;;
2022/01/27 19:50:52;;;;;;;;;;;;;;;;;;;;;
2022/01/27 19:56:49;;;;;;;;;;;;;;;;;;;;;
2022/01/27 20:02:29;;;;;;;;;;;;;;;;;;;;;
2022/01/27 20:05:18;;;;;;;;;;;3.80;99.90;;;;;;6161276;23;19970;-90
2022/01/27 20:08:09;;;;;;;;;;;3.50;99.90;;;;;;6159209;23;19916;-89
2022/01/27 20:10:44;;;;;;;;;;;3.80;99.90;;;;;;6135945;23;20276;-89
2022/01/27 20:13:15;;;;;;;;;;;5.20;99.90;;;;;;6133888;23;20326;-91
2022/01/27 20:16:01;;;;;;;;;;;4.60;99.90;;;;;;6135143;23;19920;-92
2022/01/27 20:18:36;;;;;;;;;;;4.80;99.90;;;;;;6157753;23;20384;-92
2022/01/27 20:21:19;;;;;;;;;;;;;;;;;;;;;
2022/01/27 20:23:46;;;;;;;;;;;5.00;99.90;;;;;;6161173;23;19916;-89
2022/01/27 20:26:22;;;;;;;;;;;;;;;;;;;;;
2022/01/27 20:31:58;;;;;;;;;;;4.10;99.90;;;;;;6162657;23;19994;-91
2022/01/27 20:40:11;;;;;;;;;;;3.90;99.90;;;;;;6148747;23;19927;-91
2022/01/27 20:42:57;;;;;;;;;;;4.40;99.90;;;;;;6135419;23;19916;-91
2022/01/27 20:45:28;;;;;;;;;;;4.10;99.90;;;;;;6148370;23;20317;-88
2022/01/27 20:48:01;;;;;;;;;;;4.20;99.90;;;;;;6134772;23;19927;-90
2022/01/27 20:56:59;;;;;;;;;;;;;;;;;;;;;
2022/01/27 21:05:39;;;;;;;;;;;;;;;;;;;;;
2022/01/27 21:08:23;;;;;;;;;;;3.20;99.90;;;;;;6109366;23;20035;-90
2022/01/27 21:11:20;;;;;;;;;;;;;;;;;;;;;
2022/01/27 21:13:56;;;;;;;;;;;;;;;;;;;;;
2022/01/27 21:16:32;;;;;;;;;;;;;;;;;;;;;
2022/01/27 21:20:25;;;;;;;;;;;;;;;;;;;;;
2022/01/27 21:26:18;;;;;;;;;;;;;;;;;;;;;
2022/01/27 21:29:18;;;;;;;;;;;;;;;;;;;;;
2022/01/27 21:35:53;;;;;;;;;;;;;;;;;;;;;
2022/01/27 21:45:32;;;;;;;;;;;;;;;;;;;;;
2022/01/27 22:35:59;;;;;;;;;;;;;;;;;;;;;
2022/01/27 22:38:28;;;;;;;;;;;4.30;99.90;;;;;;6221859;23;19967;-88
2022/01/27 22:40:53;;;;;;;;;;;3.90;99.90;;;;;;6197895;23;20237;-88
2022/01/27 22:43:19;;;;;;;;;;;3.80;99.90;;;;;;6172578;23;19952;-87
2022/01/27 22:46:04;;;;;;;;;;;;;;;;;;;;;
2022/01/27 22:48:40;;;;;;;;;;;3.30;99.90;;;;;;6200508;23;19916;-92
2022/01/27 22:51:18;;;;;;;;;;;;;;;;;;;;;
2022/01/27 22:53:52;;;;;;;;;;;3.20;99.90;;;;;;6201890;23;20245;-90
2022/01/27 22:56:57;;;;;;;;;;;;;;;;;;;;;
2022/01/27 23:00:02;;;;;;;;;;;;;;;;;;;;;
2022/01/27 23:02:38;;;;;;;;;;;4.30;99.90;;;;;;6224021;23;19916;-89
2022/01/27 23:08:13;;;;;;;;;;;3.40;99.90;;;;;;6201952;23;19981;-91
2022/01/27 23:10:53;;;;;;;;;;;4.40;99.90;;;;;;6202471;23;19916;-90
2022/01/27 23:13:26;;;;;;;;;;;3.60;99.90;;;;;;6174524;23;20249;-89
2022/01/27 23:16:39;;;;;;;;;;;;;;;;;;;;;
2022/01/27 23:19:52;;;;;;;;;;;3.30;99.90;;;;;;6221083;23;20259;-92
2022/01/27 23:22:17;;;;;;;;;;;4.10;99.90;;;;;;6186587;23;19915;-88
2022/01/27 23:24:47;;;;;;;;;;;4.00;99.90;;;;;;6177887;23;19966;-90
2022/01/27 23:27:17;;;;;;;;;;;3.30;99.90;;;;;;6173559;23;19923;-89
2022/01/27 23:32:38;;;;;;;;;;;3.30;99.90;;;;;;6175443;23;20034;-89
2022/01/27 23:35:08;;;;;;;;;;;2.40;99.90;;;;;;6167122;23;20359;-88
2022/01/27 23:37:55;;;;;;;;;;;3.50;99.90;;;;;;6166547;23;19964;-88